Time;durP1;ratioP1;P1;durP2;ratioP2;P2;SDS_P1;SDS_P2;PMS_P1;PMS_P2;Temp;Humidity;BMP_temperature;BMP_pressure;BME280_temperature;BME280_humidity;BME280_pressure;Samples;Min_cycle;Max_cycle;Signal;HPM_P1;HPM_P2
2022/12/15 00:40:22;;;;;;;29.70;21.97;;;-7.90;99.90;;;;;;5016431;28;20194;-68
2022/12/15 00:42:48;;;;;;;31.37;22.47;;;-7.90;99.90;;;;;;5015757;28;20196;-69
2022/12/15 00:45:14;;;;;;;26.27;21.40;;;-7.90;99.90;;;;;;5014600;28;20179;-68
2022/12/15 00:47:40;;;;;;;32.10;22.33;;;-7.80;99.90;;;;;;5015746;28;20180;-68
2022/12/15 01:20:18;;;;;;;25.57;20.73;;;-8.00;99.90;;;;;;5015848;28;20210;-68
2022/12/15 01:22:54;;;;;;;28.83;21.57;;;-7.90;99.90;;;;;;5015332;28;20192;-68
2022/12/15 01:25:22;;;;;;;24.17;20.80;;;-7.90;99.90;;;;;;5015644;28;20649;-68
2022/12/15 01:27:49;;;;;;;26.43;20.77;;;-7.80;99.90;;;;;;5015134;28;20207;-68
2022/12/15 01:30:22;;;;;;;35.47;23.57;;;-7.80;99.90;;;;;;5015095;28;20175;-68
2022/12/15 01:32:47;;;;;;;31.30;21.80;;;-7.90;99.90;;;;;;5013825;28;20217;-69
2022/12/15 01:35:14;;;;;;;30.07;22.87;;;-7.90;99.90;;;;;;5013725;28;20275;-68
2022/12/15 01:37:40;;;;;;;27.63;21.77;;;-8.00;99.90;;;;;;5015041;28;20578;-68
2022/12/15 01:42:51;;;;;;;35.43;24.50;;;-8.00;99.90;;;;;;5015022;28;20215;-68
2022/12/15 01:45:23;;;;;;;32.83;22.30;;;-7.90;99.90;;;;;;5015113;28;20176;-68
2022/12/15 01:48:11;;;;;;;29.33;21.57;;;-8.00;99.90;;;;;;5014981;28;20172;-68
2022/12/15 01:50:44;;;;;;;29.73;21.83;;;-8.00;99.90;;;;;;5015401;28;20562;-68
2022/12/15 01:53:12;;;;;;;28.43;21.83;;;-8.10;99.90;;;;;;5014838;28;20203;-68
2022/12/15 01:55:41;;;;;;;26.90;22.87;;;-8.10;99.90;;;;;;5014790;28;20176;-68
2022/12/15 01:58:08;;;;;;;33.47;22.00;;;-8.10;99.90;;;;;;5012924;28;20183;-68
2022/12/15 02:00:34;;;;;;;34.53;21.73;;;-8.10;99.90;;;;;;5014313;28;20242;-68
2022/12/15 02:03:01;;;;;;;25.00;21.00;;;-8.10;99.90;;;;;;5014429;28;20684;-68
2022/12/15 02:05:30;;;;;;;27.97;21.47;;;-8.00;99.90;;;;;;5013239;28;20180;-68
2022/12/15 02:07:58;;;;;;;24.40;21.77;;;-8.00;99.90;;;;;;5014532;28;20168;-68
2022/12/15 02:10:39;;;;;;;23.47;19.00;;;-8.00;99.90;;;;;;5014516;28;20203;-68
2022/12/15 02:13:37;;;;;;;23.37;20.63;;;-8.00;99.90;;;;;;5013023;28;20223;-68
2022/12/15 02:16:29;;;;;;;25.53;21.70;;;-8.00;99.90;;;;;;5013846;28;20206;-68
2022/12/15 02:19:13;;;;;;;31.53;21.30;;;-8.00;99.90;;;;;;5014348;28;20192;-68
2022/12/15 02:22:03;;;;;;;27.33;23.03;;;-8.00;99.90;;;;;;5014313;28;20176;-68
2022/12/15 02:25:07;;;;;;;35.53;23.83;;;-8.00;99.90;;;;;;5013957;28;20235;-68
2022/12/15 02:27:33;;;;;;;25.00;20.53;;;-8.00;99.90;;;;;;4943839;28;20218;-68
2022/12/15 02:30:34;;;;;;;26.40;20.17;;;-8.00;99.90;;;;;;5012840;28;20207;-68
2022/12/15 02:33:03;;;;;;;25.60;21.20;;;-8.00;99.90;;;;;;4934572;29;20201;-68
2022/12/15 02:35:46;;;;;;;26.67;20.77;;;-8.00;99.90;;;;;;4999624;28;20647;-68
2022/12/15 02:38:12;;;;;;;27.53;21.97;;;-8.00;99.90;;;;;;5014212;28;20164;-68
2022/12/15 02:40:38;;;;;;;27.90;21.50;;;-8.00;99.90;;;;;;5013903;28;20267;-68
2022/12/15 02:43:06;;;;;;;26.97;21.37;;;-8.10;99.90;;;;;;5013814;28;20338;-68
2022/12/15 02:45:48;;;;;;;30.43;21.37;;;-8.20;99.90;;;;;;5013924;28;20171;-68
2022/12/15 02:48:31;;;;;;;33.30;22.57;;;-8.10;99.90;;;;;;5014675;28;20160;-68
2022/12/15 02:51:15;;;;;;;23.43;20.27;;;-8.10;99.90;;;;;;5014931;28;20238;-68
2022/12/15 02:53:50;;;;;;;25.37;22.33;;;-8.10;99.90;;;;;;5014436;28;20701;-68
2022/12/15 02:56:30;;;;;;;27.47;21.33;;;-8.20;99.90;;;;;;5014378;28;20174;-68
2022/12/15 02:59:02;;;;;;;26.23;21.50;;;-8.20;99.90;;;;;;5013945;28;20192;-68
2022/12/15 03:01:30;;;;;;;28.83;21.00;;;-8.30;99.90;;;;;;5013747;28;20544;-68
2022/12/15 03:03:58;;;;;;;26.50;22.23;;;-8.30;99.90;;;;;;5012462;28;20203;-68
2022/12/15 03:06:25;;;;;;;24.77;22.13;;;-8.30;99.90;;;;;;5012601;28;20172;-68
2022/12/15 03:08:51;;;;;;;29.53;22.00;;;-8.30;99.90;;;;;;5013822;28;20546;-66
2022/12/15 03:11:17;;;;;;;24.20;21.67;;;-8.20;99.90;;;;;;5015248;28;20176;-66
2022/12/15 03:13:43;;;;;;;23.70;21.20;;;-8.10;99.90;;;;;;5017464;28;20191;-66
2022/12/15 03:16:08;;;;;;;28.20;22.30;;;-8.00;99.90;;;;;;5017632;28;20180;-66
2022/12/15 03:18:34;;;;;;;27.63;20.93;;;-7.90;99.90;;;;;;5019325;28;20207;-66
2022/12/15 03:21:00;;;;;;;30.97;23.83;;;-7.90;99.90;;;;;;5016631;28;20187;-66
2022/12/15 03:23:25;;;;;;;27.63;22.00;;;-7.80;99.90;;;;;;5017367;28;20672;-66
2022/12/15 03:25:51;;;;;;;28.33;21.67;;;-7.80;99.90;;;;;;5017095;28;20170;-66
2022/12/15 03:28:17;;;;;;;23.57;21.00;;;-7.80;99.90;;;;;;5017466;28;20176;-66
2022/12/15 03:30:43;;;;;;;25.53;19.73;;;-7.80;99.90;;;;;;5015959;28;20530;-66
2022/12/15 03:33:08;;;;;;;26.00;21.23;;;-7.90;99.90;;;;;;5017081;28;20226;-66
2022/12/15 03:35:34;;;;;;;28.03;21.53;;;-7.90;99.90;;;;;;5017683;28;20561;-66
2022/12/15 03:38:00;;;;;;;32.97;21.13;;;-7.90;99.90;;;;;;5017400;28;20310;-66
2022/12/15 03:40:26;;;;;;;25.90;20.67;;;-8.00;99.90;;;;;;5017158;28;20640;-66
2022/12/15 03:42:51;;;;;;;23.97;20.27;;;-8.00;99.90;;;;;;5016738;28;20242;-66
2022/12/15 03:45:35;;;;;;;24.80;22.07;;;-8.00;99.90;;;;;;5015749;28;20203;-67
2022/12/15 03:48:01;;;;;;;29.50;20.67;;;-8.00;99.90;;;;;;5017260;28;20242;-65
2022/12/15 03:50:28;;;;;;;30.80;23.33;;;-8.00;99.90;;;;;;5016164;28;20172;-66
2022/12/15 03:52:56;;;;;;;30.83;22.50;;;-7.90;99.90;;;;;;5017199;28;20195;-66
2022/12/15 03:55:23;;;;;;;24.80;21.07;;;-7.90;99.90;;;;;;5015628;28;20180;-66
2022/12/15 03:57:49;;;;;;;29.93;22.70;;;-7.90;99.90;;;;;;5015176;28;20183;-66
2022/12/15 04:00:17;;;;;;;24.90;20.27;;;-7.90;99.90;;;;;;5016790;28;20176;-66
2022/12/15 04:02:43;;;;;;;28.27;21.63;;;-7.90;99.90;;;;;;5016546;28;20195;-66
2022/12/15 04:05:21;;;;;;;23.97;20.40;;;-8.00;99.90;;;;;;5016545;28;20199;-66
2022/12/15 04:07:46;;;;;;;32.20;21.23;;;-8.00;99.90;;;;;;5015374;28;20687;-66
2022/12/15 04:10:12;;;;;;;23.07;20.03;;;-7.90;99.90;;;;;;5015326;28;20179;-66
2022/12/15 04:12:41;;;;;;;24.37;21.10;;;-7.90;99.90;;;;;;4998767;28;20203;-66
2022/12/15 04:15:08;;;;;;;29.70;23.07;;;-7.90;99.90;;;;;;5016499;28;20172;-67
2022/12/15 04:17:33;;;;;;;28.47;21.47;;;-7.90;99.90;;;;;;5016979;28;20179;-66
2022/12/15 04:20:08;;;;;;;24.50;21.07;;;-7.90;99.90;;;;;;5015240;28;20663;-66
2022/12/15 04:22:39;;;;;;;26.47;22.47;;;-7.90;99.90;;;;;;5015773;28;20195;-65
2022/12/15 05:33:52;;;;;;;34.70;21.73;;;-8.10;99.90;;;;;;5013994;28;20221;-66
2022/12/15 05:36:17;;;;;;;25.60;22.27;;;-8.10;99.90;;;;;;5014897;28;20178;-65
2022/12/15 05:38:43;;;;;;;33.23;24.20;;;-8.20;99.90;;;;;;5015133;28;20180;-65
2022/12/15 05:41:09;;;;;;;25.63;22.27;;;-8.20;99.90;;;;;;5013369;28;20188;-65
2022/12/15 05:43:34;;;;;;;31.53;23.10;;;-8.10;99.90;;;;;;5013269;28;20585;-65
2022/12/15 05:46:04;;;;;;;36.50;21.47;;;-8.10;99.90;;;;;;5013321;28;20183;-65
2022/12/15 05:48:29;;;;;;;26.43;23.77;;;-8.10;99.90;;;;;;5014416;28;20176;-65
2022/12/15 05:50:55;;;;;;;25.87;22.40;;;-8.10;99.90;;;;;;5014714;28;20176;-65
2022/12/15 05:53:21;;;;;;;29.03;23.00;;;-8.00;99.90;;;;;;5014318;28;20198;-65
2022/12/15 05:55:46;;;;;;;26.63;21.90;;;-8.00;99.90;;;;;;5014419;28;20583;-65
2022/12/15 05:58:12;;;;;;;30.30;22.57;;;-8.00;99.90;;;;;;5014423;28;20172;-65
2022/12/15 06:00:38;;;;;;;27.67;23.87;;;-8.10;99.90;;;;;;5014344;28;20172;-66
2022/12/15 06:03:03;;;;;;;31.43;24.40;;;-8.20;99.90;;;;;;5014101;28;20283;-65
2022/12/15 06:05:29;;;;;;;31.27;24.40;;;-8.20;99.90;;;;;;5014258;28;20222;-65
2022/12/15 06:07:55;;;;;;;25.23;22.63;;;-8.20;99.90;;;;;;5014211;28;20641;-66
2022/12/15 06:10:21;;;;;;;34.27;24.00;;;-8.30;99.90;;;;;;5014606;28;20613;-66
2022/12/15 06:12:47;;;;;;;30.37;21.37;;;-8.30;99.90;;;;;;5013890;28;20196;-65
2022/12/15 06:15:12;;;;;;;25.73;21.97;;;-8.30;99.90;;;;;;5013015;28;20194;-65
2022/12/15 06:17:38;;;;;;;28.47;23.43;;;-8.30;99.90;;;;;;5014017;28;20187;-65
2022/12/15 06:20:04;;;;;;;43.80;27.50;;;-8.20;99.90;;;;;;5012606;28;20672;-65
2022/12/15 06:22:30;;;;;;;47.07;29.57;;;-8.10;99.90;;;;;;5012537;28;20210;-65
2022/12/15 06:24:56;;;;;;;47.17;30.57;;;-8.10;99.90;;;;;;5027531;28;20294;-65
2022/12/15 06:27:21;;;;;;;37.93;28.53;;;-8.10;99.90;;;;;;5013956;28;20254;-65
2022/12/15 06:29:47;;;;;;;31.73;23.03;;;-8.00;99.90;;;;;;5029157;28;20276;-65
2022/12/15 06:32:13;;;;;;;37.13;24.43;;;-8.10;99.90;;;;;;5013918;28;20174;-65
2022/12/15 06:34:39;;;;;;;31.10;25.17;;;-8.20;99.90;;;;;;5029095;28;20183;-65
2022/12/15 06:37:04;;;;;;;30.87;24.27;;;-8.30;99.90;;;;;;5013735;28;20176;-65
2022/12/15 06:39:30;;;;;;;28.40;22.87;;;-8.30;99.90;;;;;;5014183;28;20633;-65
2022/12/15 06:41:56;;;;;;;30.97;22.03;;;-8.30;99.90;;;;;;5013401;28;20184;-68
2022/12/15 06:44:21;;;;;;;29.63;25.07;;;-8.30;99.90;;;;;;5012003;28;20199;-65
2022/12/15 06:46:47;;;;;;;31.90;24.03;;;-8.20;99.90;;;;;;5013617;28;20250;-64
2022/12/15 06:49:13;;;;;;;34.53;24.27;;;-8.20;99.90;;;;;;5013540;28;20172;-65
2022/12/15 06:51:40;;;;;;;32.57;23.77;;;-8.20;99.90;;;;;;5013802;28;20172;-65
2022/12/15 06:54:06;;;;;;;34.83;25.60;;;-8.20;99.90;;;;;;5013396;28;20195;-66
2022/12/15 06:56:37;;;;;;;33.07;25.20;;;-8.20;99.90;;;;;;5013650;28;20310;-65
2022/12/15 06:59:04;;;;;;;33.77;24.13;;;-8.20;99.90;;;;;;5029141;28;20191;-65
2022/12/15 07:01:31;;;;;;;29.67;23.93;;;-8.30;99.90;;;;;;5028683;28;20206;-65
2022/12/15 07:03:58;;;;;;;35.43;24.67;;;-8.40;99.90;;;;;;5028438;28;20199;-65
2022/12/15 07:06:24;;;;;;;26.47;23.63;;;-8.40;99.90;;;;;;5013399;28;20201;-65
2022/12/15 07:08:55;;;;;;;28.37;24.97;;;-8.30;99.90;;;;;;5013332;28;20171;-65
2022/12/15 07:11:21;;;;;;;37.50;26.27;;;-8.20;99.90;;;;;;5028416;28;20194;-65
2022/12/15 07:13:53;;;;;;;31.40;25.40;;;-8.20;99.90;;;;;;5013082;28;20734;-65
2022/12/15 07:16:21;;;;;;;33.77;24.30;;;-8.20;99.90;;;;;;5028380;28;20751;-65
2022/12/15 07:18:46;;;;;;;31.67;23.63;;;-8.10;99.90;;;;;;5013780;28;20274;-65
2022/12/15 07:21:12;;;;;;;32.87;24.20;;;-8.00;99.90;;;;;;5013427;28;20688;-65
2022/12/15 07:23:38;;;;;;;30.20;24.00;;;-8.00;99.90;;;;;;5012959;28;20723;-65
2022/12/15 07:26:06;;;;;;;35.13;25.50;;;-8.10;99.90;;;;;;5013160;28;20168;-66
2022/12/15 07:28:32;;;;;;;28.17;23.20;;;-8.10;99.90;;;;;;5011657;28;20176;-65
2022/12/15 07:31:06;;;;;;;32.73;23.67;;;-8.00;99.90;;;;;;5011925;28;20180;-65
2022/12/15 07:33:33;;;;;;;32.13;24.80;;;-8.20;99.90;;;;;;5013101;28;20206;-65
2022/12/15 07:36:00;;;;;;;27.10;23.43;;;-8.20;99.90;;;;;;5011793;28;20230;-65
2022/12/15 07:38:26;;;;;;;35.27;24.30;;;-8.30;99.90;;;;;;5011871;28;20191;-65
2022/12/15 07:40:52;;;;;;;35.43;24.60;;;-8.30;99.90;;;;;;5013213;28;20184;-65
2022/12/15 07:43:20;;;;;;;30.30;23.43;;;-8.40;99.90;;;;;;5013029;28;20266;-65
2022/12/15 07:45:53;;;;;;;30.20;24.40;;;-8.30;99.90;;;;;;5013012;28;20199;-65
2022/12/15 07:48:19;;;;;;;30.37;23.43;;;-8.30;99.90;;;;;;5013415;28;20189;-65
2022/12/15 07:50:46;;;;;;;29.83;23.03;;;-8.20;99.90;;;;;;5012990;28;20176;-65
2022/12/15 07:53:11;;;;;;;36.33;23.97;;;-8.10;99.90;;;;;;5012785;28;20199;-65
2022/12/15 07:55:37;;;;;;;33.67;25.43;;;-8.10;99.90;;;;;;5013135;28;20180;-65
2022/12/15 07:58:03;;;;;;;32.57;25.37;;;-8.00;99.90;;;;;;5014182;28;20180;-65
2022/12/15 08:00:29;;;;;;;25.63;22.93;;;-8.00;99.90;;;;;;5015251;28;20589;-65
2022/12/15 08:02:54;;;;;;;27.63;24.13;;;-8.00;99.90;;;;;;5017297;28;20200;-65
2022/12/15 08:05:20;;;;;;;34.47;25.83;;;-7.90;99.90;;;;;;5015592;28;20238;-65
2022/12/15 08:07:46;;;;;;;32.50;25.20;;;-7.90;99.90;;;;;;5016907;28;20663;-65
2022/12/15 08:10:11;;;;;;;30.80;23.17;;;-7.90;99.90;;;;;;5016310;28;20226;-66
2022/12/15 08:12:37;;;;;;;28.03;24.33;;;-7.90;99.90;;;;;;5016554;28;20200;-65
2022/12/15 08:15:03;;;;;;;30.50;23.83;;;-7.90;99.90;;;;;;5016464;28;20595;-65
2022/12/15 08:17:29;;;;;;;30.60;24.07;;;-7.90;99.90;;;;;;5016402;28;20207;-65
2022/12/15 08:19:55;;;;;;;29.60;23.73;;;-7.90;99.90;;;;;;5016456;28;20218;-65
2022/12/15 08:22:20;;;;;;;29.83;24.27;;;-7.90;99.90;;;;;;5016280;28;20199;-65
2022/12/15 08:24:47;;;;;;;29.23;26.03;;;-7.90;99.90;;;;;;5016148;28;20215;-65
2022/12/15 08:27:13;;;;;;;30.10;25.07;;;-7.90;99.90;;;;;;5016192;28;20264;-66
2022/12/15 08:29:40;;;;;;;38.53;25.43;;;-7.90;99.90;;;;;;5014942;28;20202;-65
2022/12/15 08:32:06;;;;;;;29.80;24.87;;;-7.80;99.90;;;;;;5016306;28;20168;-67
2022/12/15 08:34:32;;;;;;;31.57;23.70;;;-7.80;99.90;;;;;;5016251;28;20645;-67
2022/12/15 08:36:57;;;;;;;33.97;25.40;;;-7.80;99.90;;;;;;5016080;28;20191;-67
2022/12/15 08:39:23;;;;;;;38.00;26.07;;;-7.70;99.90;;;;;;5014707;28;20215;-67
2022/12/15 08:41:49;;;;;;;37.77;26.53;;;-7.60;99.90;;;;;;5014669;28;20271;-67
2022/12/15 08:44:16;;;;;;;33.50;25.40;;;-7.60;99.90;;;;;;5015789;28;20203;-67
2022/12/15 08:46:41;;;;;;;34.80;25.33;;;-7.50;99.90;;;;;;5015827;28;20184;-67
2022/12/15 08:49:09;;;;;;;31.50;24.90;;;-7.40;99.90;;;;;;5016093;28;20243;-67
2022/12/15 08:51:34;;;;;;;41.90;28.73;;;-7.40;99.90;;;;;;5014272;28;20611;-67
2022/12/15 08:54:00;;;;;;;43.80;30.27;;;-7.30;99.90;;;;;;5015643;28;20226;-67
2022/12/15 08:56:27;;;;;;;58.10;34.87;;;-7.20;99.90;;;;;;5016003;28;20176;-67
2022/12/15 08:58:58;;;;;;;80.80;43.13;;;-7.20;99.90;;;;;;5015501;28;20180;-67
2022/12/15 09:01:26;;;;;;;63.10;39.47;;;-7.10;99.90;;;;;;5014367;28;20184;-67
2022/12/15 09:03:54;;;;;;;53.70;35.97;;;-7.00;99.90;;;;;;5015544;28;20235;-67
2022/12/15 09:06:26;;;;;;;47.33;32.33;;;-7.00;99.90;;;;;;5014667;28;20172;-67
2022/12/15 09:08:56;;;;;;;35.33;25.90;;;-6.90;99.90;;;;;;5014502;28;20179;-68
2022/12/15 09:11:24;;;;;;;34.60;25.27;;;-6.80;99.90;;;;;;5015990;28;20215;-67
2022/12/15 09:13:50;;;;;;;30.73;23.33;;;-6.70;99.90;;;;;;5015607;28;20840;-67
2022/12/15 09:16:17;;;;;;;34.67;25.80;;;-6.70;99.90;;;;;;5015473;28;20235;-67
2022/12/15 09:18:45;;;;;;;33.77;26.87;;;-6.60;99.90;;;;;;5015524;28;20172;-67
2022/12/15 09:21:12;;;;;;;30.90;24.20;;;-6.60;99.90;;;;;;5014011;28;20191;-67
2022/12/15 09:23:39;;;;;;;33.80;24.97;;;-6.50;99.90;;;;;;5018122;28;20608;-68
2022/12/15 09:26:10;;;;;;;42.17;26.50;;;-6.40;99.90;;;;;;5015264;28;20186;-67
2022/12/15 09:28:37;;;;;;;42.63;28.73;;;-6.40;99.90;;;;;;5015240;28;20164;-68
2022/12/15 09:31:03;;;;;;;41.03;28.50;;;-6.30;99.90;;;;;;5030297;28;20641;-67
2022/12/15 09:33:29;;;;;;;40.67;27.40;;;-6.20;99.90;;;;;;5030200;28;20313;-67
2022/12/15 09:35:55;;;;;;;36.90;26.17;;;-6.10;99.90;;;;;;5015356;28;20668;-68
2022/12/15 09:38:20;;;;;;;42.20;26.17;;;-5.90;99.90;;;;;;5030095;28;20653;-67
2022/12/15 09:40:47;;;;;;;37.90;26.60;;;-5.70;99.90;;;;;;5014716;28;20184;-68
2022/12/15 09:43:20;;;;;;;49.63;28.80;;;-5.50;99.90;;;;;;5014697;28;20202;-68
2022/12/15 09:45:51;;;;;;;42.00;28.97;;;-5.40;99.90;;;;;;5030130;28;20176;-68
2022/12/15 09:48:21;;;;;;;42.03;28.57;;;-5.30;99.90;;;;;;5030075;28;20585;-68
2022/12/15 09:50:51;;;;;;;42.93;28.20;;;-5.20;99.90;;;;;;5015377;28;20238;-68
2022/12/15 09:53:18;;;;;;;46.30;28.87;;;-5.10;99.90;;;;;;5014574;28;20266;-68
2022/12/15 09:55:51;;;;;;;45.07;29.27;;;-5.00;99.90;;;;;;5014760;28;20172;-68
2022/12/15 09:58:23;;;;;;;43.87;28.40;;;-4.80;99.90;;;;;;5015123;28;20173;-68
2022/12/15 10:00:55;;;;;;;47.90;30.37;;;-4.70;99.90;;;;;;5029835;28;20214;-68
2022/12/15 10:04:02;;;;;;;46.40;29.37;;;-4.60;99.90;;;;;;5014734;28;20618;-68
2022/12/15 10:06:55;;;;;;;44.60;30.47;;;-4.50;99.90;;;;;;5010653;28;20204;-68
2022/12/15 10:09:26;;;;;;;46.40;30.17;;;-4.40;99.90;;;;;;5014279;28;20188;-68
2022/12/15 10:11:55;;;;;;;51.33;32.60;;;-4.40;99.90;;;;;;5014284;28;20199;-68
2022/12/15 10:14:40;;;;;;;49.77;33.03;;;-4.30;99.90;;;;;;5014326;28;20200;-69
2022/12/15 10:17:14;;;;;;;56.07;33.17;;;-4.20;99.90;;;;;;5029506;28;20641;-68
2022/12/15 10:19:47;;;;;;;50.47;31.90;;;-4.10;99.90;;;;;;5014019;28;20211;-66
2022/12/15 10:22:20;;;;;;;47.00;33.13;;;-4.00;99.90;;;;;;5029530;28;20563;-66
2022/12/15 10:24:46;;;;;;;45.00;30.00;;;-3.80;99.90;;;;;;5029215;28;20216;-66
2022/12/15 10:27:11;;;;;;;48.97;31.73;;;-3.60;99.90;;;;;;5029261;28;20528;-66
2022/12/15 10:29:59;;;;;;;52.40;30.83;;;-3.50;99.90;;;;;;5013824;28;20171;-66
2022/12/15 10:32:43;;;;;;;50.60;32.63;;;-3.30;99.90;;;;;;5014269;28;20188;-66
2022/12/15 10:35:19;;;;;;;45.70;30.57;;;-3.10;99.90;;;;;;5013794;28;20155;-66
2022/12/15 10:37:45;;;;;;;49.43;31.47;;;-2.90;99.90;;;;;;5013786;28;20223;-66
2022/12/15 10:40:18;;;;;;;47.40;29.97;;;-2.70;99.90;;;;;;5013709;28;20176;-67
2022/12/15 10:42:47;;;;;;;55.50;31.50;;;-2.50;99.90;;;;;;5014384;28;20219;-66
2022/12/15 10:45:37;;;;;;;46.13;29.70;;;-2.50;99.90;;;;;;5013578;28;20257;-66
2022/12/15 10:48:05;;;;;;;49.43;32.03;;;-2.40;99.90;;;;;;5028980;28;20167;-67
2022/12/15 10:50:32;;;;;;;46.47;31.20;;;-2.30;99.90;;;;;;5013811;28;20183;-67
2022/12/15 10:52:59;;;;;;;48.50;30.93;;;-2.10;99.90;;;;;;5028630;28;20196;-67
2022/12/15 10:55:45;;;;;;;47.83;30.53;;;-1.90;99.90;;;;;;5013760;28;20176;-66
2022/12/15 10:58:22;;;;;;;40.33;29.23;;;-1.60;99.90;;;;;;5011881;28;20203;-67
2022/12/15 11:01:03;;;;;;;42.93;29.90;;;-1.30;99.90;;;;;;5028667;28;20168;-67
2022/12/15 11:03:35;;;;;;;41.87;28.63;;;-1.20;99.90;;;;;;5028600;28;20218;-67
2022/12/15 11:06:07;;;;;;;44.50;28.50;;;-1.20;99.90;;;;;;5013834;28;20218;-67
2022/12/15 11:08:34;;;;;;;40.97;28.17;;;-1.00;99.90;;;;;;5013701;28;20247;-67
2022/12/15 11:14:05;;;;;;;42.40;27.40;;;-0.90;99.90;;;;;;5013380;28;20242;-67
2022/12/15 11:16:31;;;;;;;55.80;33.03;;;-0.90;99.90;;;;;;5013431;28;20168;-67
2022/12/15 11:19:13;;;;;;;41.70;27.40;;;-0.70;99.90;;;;;;5013448;28;20168;-68
2022/12/15 11:21:47;;;;;;;45.30;29.60;;;-0.50;99.90;;;;;;5013704;28;20191;-68
2022/12/15 11:24:24;;;;;;;38.80;25.97;;;-0.20;99.90;;;;;;5013068;28;20238;-68
2022/12/15 11:27:12;;;;;;;39.07;27.63;;;0.00;99.90;;;;;;5013357;28;20164;-68
2022/12/15 11:29:49;;;;;;;39.70;27.57;;;0.10;99.90;;;;;;5013069;28;20652;-67
2022/12/15 11:32:23;;;;;;;40.10;26.33;;;0.00;99.90;;;;;;5014794;28;20203;-68
2022/12/15 11:34:49;;;;;;;38.47;27.43;;;0.20;99.90;;;;;;5015868;28;20172;-68
2022/12/15 11:37:37;;;;;;;37.73;26.00;;;0.20;99.90;;;;;;5015712;28;20234;-68
2022/12/15 11:40:37;;;;;;;39.43;26.87;;;0.10;99.90;;;;;;5017256;28;20206;-69
2022/12/15 11:43:21;;;;;;;39.43;26.67;;;0.40;99.90;;;;;;5016709;28;20271;-69
2022/12/15 11:46:08;;;;;;;37.07;25.80;;;0.60;99.90;;;;;;5015596;28;20223;-69
2022/12/15 11:48:52;;;;;;;39.87;28.00;;;0.70;99.90;;;;;;5017085;28;20167;-69
2022/12/15 11:51:34;;;;;;;39.37;25.80;;;0.70;99.90;;;;;;5015570;28;20168;-69
2022/12/15 11:54:14;;;;;;;40.77;26.43;;;0.90;99.90;;;;;;5016699;28;20279;-69
2022/12/15 11:57:21;;;;;;;37.07;25.37;;;0.90;99.90;;;;;;5015473;28;20168;-69
2022/12/15 12:00:12;;;;;;;35.67;24.43;;;1.00;99.90;;;;;;4988898;28;20266;-69
2022/12/15 12:02:58;;;;;;;35.07;23.83;;;1.00;99.90;;;;;;5016585;28;20563;-69
2022/12/15 12:05:36;;;;;;;37.43;24.50;;;1.10;99.90;;;;;;5016764;28;20196;-69
2022/12/15 12:08:20;;;;;;;36.40;23.93;;;1.20;99.90;;;;;;5016457;28;20579;-69
2022/12/15 12:11:04;;;;;;;36.00;24.30;;;1.30;99.90;;;;;;5016388;28;20691;-69
2022/12/15 12:13:57;;;;;;;32.90;23.33;;;1.40;99.90;;;;;;5015022;28;20231;-69
2022/12/15 12:16:34;;;;;;;33.20;23.17;;;1.40;99.90;;;;;;5002554;28;20588;-69
2022/12/15 12:19:01;;;;;;;34.90;24.43;;;1.50;99.90;;;;;;5015045;28;20187;-69
2022/12/15 12:21:49;;;;;;;38.27;23.77;;;1.20;99.90;;;;;;5016449;28;20206;-69
2022/12/15 12:24:44;;;;;;;41.50;28.27;;;1.10;99.90;;;;;;5023778;28;20215;-69
2022/12/15 12:27:21;;;;;;;37.67;24.23;;;1.30;99.90;;;;;;5016436;28;20613;-69
2022/12/15 12:29:54;;;;;;;39.30;24.73;;;1.30;99.90;;;;;;5031218;28;20175;-69
2022/12/15 12:32:46;;;;;;;32.07;23.53;;;1.20;99.90;;;;;;5016172;28;20270;-69
2022/12/15 12:35:16;;;;;;;38.27;24.33;;;1.40;99.90;;;;;;5031331;28;20550;-69
2022/12/15 12:37:43;;;;;;;32.30;22.30;;;1.50;99.90;;;;;;5016337;28;20531;-69
2022/12/15 12:40:47;;;;;;;37.70;24.33;;;1.70;99.90;;;;;;5016146;28;20542;-69
2022/12/15 12:43:34;;;;;;;36.43;21.97;;;1.80;99.90;;;;;;5013839;28;20195;-69
2022/12/15 12:46:19;;;;;;;28.03;21.97;;;2.00;99.90;;;;;;5031029;28;20269;-69
2022/12/15 12:48:55;;;;;;;31.77;22.47;;;2.00;99.90;;;;;;5015614;28;20314;-69
2022/12/15 12:51:32;;;;;;;31.87;21.93;;;2.10;99.90;;;;;;5030964;28;20179;-69
2022/12/15 12:53:59;;;;;;;36.10;22.67;;;2.00;99.90;;;;;;5030635;28;20262;-69
2022/12/15 12:56:29;;;;;;;32.43;22.37;;;2.10;99.90;;;;;;5015574;28;20281;-69
2022/12/15 12:58:55;;;;;;;35.73;21.83;;;1.70;99.90;;;;;;5030786;28;20191;-69
2022/12/15 13:01:39;;;;;;;32.23;23.30;;;1.70;99.90;;;;;;5015435;28;20547;-69
2022/12/15 13:04:28;;;;;;;35.90;23.50;;;1.70;99.90;;;;;;5015135;28;20669;-69
2022/12/15 13:07:24;;;;;;;32.67;23.30;;;1.70;99.90;;;;;;5002955;28;20188;-69
2022/12/15 13:10:17;;;;;;;31.73;21.27;;;1.70;99.90;;;;;;5030265;28;20180;-69
2022/12/15 13:13:19;;;;;;;36.03;22.97;;;1.80;99.90;;;;;;5005159;28;20226;-69
2022/12/15 13:15:49;;;;;;;32.87;21.67;;;1.90;99.90;;;;;;5013509;28;20191;-69
2022/12/15 13:18:21;;;;;;;32.83;22.97;;;2.10;99.90;;;;;;5015546;28;20172;-69
2022/12/15 13:20:52;;;;;;;36.50;22.60;;;2.10;99.90;;;;;;5030475;28;20267;-69
2022/12/15 13:23:20;;;;;;;32.23;22.77;;;2.30;99.90;;;;;;5015178;28;20214;-69
2022/12/15 13:26:02;;;;;;;34.37;21.67;;;2.40;99.90;;;;;;5015123;28;20187;-69
2022/12/15 13:28:39;;;;;;;27.90;19.90;;;2.30;99.90;;;;;;5015020;28;20152;-69
2022/12/15 13:31:13;;;;;;;27.57;18.90;;;2.30;99.90;;;;;;5014041;28;20274;-69
2022/12/15 13:33:55;;;;;;;28.47;18.57;;;2.30;99.90;;;;;;5013661;28;20200;-69
2022/12/15 13:36:36;;;;;;;27.83;19.77;;;2.30;99.90;;;;;;5015122;28;20188;-69
2022/12/15 13:39:11;;;;;;;31.43;21.73;;;2.30;99.90;;;;;;5015068;28;20203;-69
2022/12/15 13:41:41;;;;;;;35.57;23.67;;;2.20;99.90;;;;;;5014955;28;20207;-69
2022/12/15 13:44:31;;;;;;;31.90;20.73;;;2.10;99.90;;;;;;5013358;28;20262;-69
2022/12/15 13:47:16;;;;;;;27.30;21.37;;;2.00;99.90;;;;;;5013407;28;20180;-69
2022/12/15 13:49:47;;;;;;;30.60;20.47;;;1.80;99.90;;;;;;5013666;28;20207;-69
2022/12/15 13:52:38;;;;;;;30.97;20.60;;;1.70;99.90;;;;;;5013507;28;20294;-69
2022/12/15 13:55:18;;;;;;;25.47;20.23;;;1.60;99.90;;;;;;5003721;28;20238;-69
2022/12/15 13:58:11;;;;;;;31.10;21.20;;;1.60;99.90;;;;;;5014506;28;20686;-69
2022/12/15 14:00:38;;;;;;;31.37;20.90;;;1.60;99.90;;;;;;5015098;28;20168;-69
2022/12/15 14:03:11;;;;;;;33.90;21.70;;;1.60;99.90;;;;;;5014844;28;20283;-69
2022/12/15 14:05:40;;;;;;;29.70;20.83;;;1.60;99.90;;;;;;5013243;28;20271;-69
2022/12/15 14:08:12;;;;;;;31.80;21.93;;;1.60;99.90;;;;;;5015013;28;20191;-69
2022/12/15 14:10:47;;;;;;;25.50;19.87;;;1.50;99.90;;;;;;5014661;28;20248;-69
2022/12/15 14:13:27;;;;;;;29.93;20.87;;;1.60;99.90;;;;;;5014335;28;20247;-69
2022/12/15 14:16:03;;;;;;;35.33;22.33;;;1.50;99.90;;;;;;5014389;28;20160;-69
2022/12/15 14:18:38;;;;;;;33.53;21.90;;;1.40;99.90;;;;;;5014936;28;20176;-69
2022/12/15 14:21:21;;;;;;;34.10;21.37;;;1.40;99.90;;;;;;4996837;28;20199;-69
2022/12/15 14:23:47;;;;;;;33.57;23.37;;;1.30;99.90;;;;;;5014120;28;20215;-69
2022/12/15 14:26:14;;;;;;;30.50;20.43;;;1.20;99.90;;;;;;5015512;28;20174;-69
2022/12/15 14:28:45;;;;;;;32.07;21.40;;;1.00;99.90;;;;;;5016487;28;20176;-69
2022/12/15 14:31:22;;;;;;;32.27;21.53;;;0.90;99.90;;;;;;5015709;28;20183;-69
2022/12/15 14:34:12;;;;;;;30.87;20.97;;;0.60;99.90;;;;;;5014877;28;20676;-69
2022/12/15 14:36:40;;;;;;;28.53;20.97;;;0.40;99.90;;;;;;5015175;28;20621;-69
2022/12/15 14:39:21;;;;;;;30.47;20.93;;;0.20;99.90;;;;;;5015073;28;20191;-70
2022/12/15 14:41:50;;;;;;;27.80;20.50;;;0.10;99.90;;;;;;5000716;28;20578;-70
2022/12/15 14:44:19;;;;;;;26.70;20.47;;;-0.10;99.90;;;;;;4993386;28;20307;-70
2022/12/15 14:46:48;;;;;;;27.73;20.83;;;-0.20;99.90;;;;;;4995039;28;20157;-70
2022/12/15 14:49:35;;;;;;;28.03;20.17;;;-0.30;99.90;;;;;;4994854;28;20234;-70
2022/12/15 14:52:04;;;;;;;26.97;19.73;;;-0.40;99.90;;;;;;4994355;28;20247;-70
2022/12/15 14:54:48;;;;;;;34.53;24.20;;;-0.50;99.90;;;;;;4993232;28;20191;-70
2022/12/15 14:57:23;;;;;;;34.47;25.67;;;-0.60;99.90;;;;;;4994868;28;20625;-70
2022/12/15 14:59:50;;;;;;;30.27;24.07;;;-0.70;99.90;;;;;;4992948;28;20740;-70
2022/12/15 15:02:23;;;;;;;38.07;24.63;;;-0.80;99.90;;;;;;4994457;28;20180;-70
2022/12/15 15:05:04;;;;;;;34.20;24.40;;;-0.90;99.90;;;;;;4994537;28;20551;-70
2022/12/15 15:07:36;;;;;;;31.90;23.37;;;-0.90;99.90;;;;;;5000303;28;20280;-70
2022/12/15 15:10:07;;;;;;;39.63;26.03;;;-1.00;99.90;;;;;;5000804;28;20172;-70
2022/12/15 15:12:47;;;;;;;33.50;24.23;;;-1.00;99.90;;;;;;5000732;28;20231;-70
2022/12/15 15:15:19;;;;;;;40.33;27.87;;;-1.10;99.90;;;;;;5000552;28;20168;-70
2022/12/15 15:17:51;;;;;;;39.70;25.87;;;-1.20;99.90;;;;;;5000665;28;20178;-70